Time;durP1;ratioP1;P1;durP2;ratioP2;P2;SDS_P1;SDS_P2;PMS_P1;PMS_P2;Temp;Humidity;BMP_temperature;BMP_pressure;BME280_temperature;BME280_humidity;BME280_pressure;Samples;Min_cycle;Max_cycle;Signal;HPM_P1;HPM_P2
2022/04/03 00:01:58;;;;;;;9.70;4.50;;;;;;;10.92;64.55;99231.40;1757811;81;20999;-74
2022/04/03 00:04:25;;;;;;;7.12;4.45;;;;;;;10.88;64.50;99229.98;1757850;81;20912;-73
2022/04/03 00:06:52;;;;;;;5.42;3.10;;;;;;;10.84;64.66;99226.78;1757835;80;20893;-73
2022/04/03 00:09:20;;;;;;;5.33;3.30;;;;;;;10.80;64.60;99220.12;1757967;80;20971;-74
2022/04/03 00:11:47;;;;;;;6.25;3.37;;;;;;;10.73;64.82;99228.16;1757964;81;21205;-72
2022/04/03 00:14:15;;;;;;;4.67;3.27;;;;;;;10.68;65.09;99221.98;1757898;81;21319;-73
2022/04/03 00:16:43;;;;;;;4.22;3.05;;;;;;;10.69;65.23;99225.42;1757971;81;20979;-74
2022/04/03 00:19:10;;;;;;;3.83;3.52;;;;;;;10.70;65.02;99228.42;1757807;81;21045;-74
2022/04/03 00:21:37;;;;;;;5.25;3.25;;;;;;;10.71;65.11;99237.45;1758107;81;20845;-74
2022/04/03 00:24:04;;;;;;;5.67;3.83;;;;;;;10.70;65.20;99236.28;1757895;81;21938;-74
2022/04/03 00:26:31;;;;;;;8.15;5.72;;;;;;;10.67;65.12;99235.20;1757779;80;20924;-73
2022/04/03 00:28:58;;;;;;;8.65;5.58;;;;;;;10.63;65.12;99232.48;1756208;81;20984;-73
2022/04/03 00:31:25;;;;;;;12.68;6.20;;;;;;;10.57;65.21;99224.66;1744595;82;20882;-72
2022/04/03 00:33:52;;;;;;;9.20;5.97;;;;;;;10.51;65.25;99209.43;1744619;80;20893;-73
2022/04/03 00:36:19;;;;;;;7.70;5.62;;;;;;;10.44;65.59;99226.14;1744606;80;21187;-73
2022/04/03 00:38:46;;;;;;;13.35;6.50;;;;;;;10.41;65.76;99248.67;1744577;81;20893;-72
2022/04/03 00:41:14;;;;;;;12.05;6.50;;;;;;;10.36;65.61;99253.47;1744489;82;20901;-73
2022/04/03 00:43:40;;;;;;;9.90;5.62;;;;;;;10.33;65.57;99258.94;1734048;82;21410;-73
2022/04/03 00:46:07;;;;;;;15.70;6.78;;;;;;;10.31;65.68;99262.16;1744800;82;20925;-73
2022/04/03 00:48:34;;;;;;;11.50;5.92;;;;;;;10.31;65.92;99268.23;1744475;81;21241;-75
2022/04/03 00:51:01;;;;;;;8.90;6.35;;;;;;;10.31;66.21;99267.40;1744672;81;21469;-73
2022/04/03 00:53:27;;;;;;;13.80;7.35;;;;;;;10.29;66.21;99270.62;1744610;81;20873;-73
2022/04/03 00:55:55;;;;;;;12.45;7.03;;;;;;;10.28;66.13;99272.87;1744566;81;20858;-72
2022/04/03 00:58:22;;;;;;;12.10;7.50;;;;;;;10.24;66.16;99268.34;1744525;81;20987;-73
2022/04/03 01:00:49;;;;;;;13.45;8.73;;;;;;;10.12;66.04;99271.47;1744752;81;21957;-73
2022/04/03 01:03:16;;;;;;;12.47;9.23;;;;;;;10.01;66.23;99271.98;1744416;82;20881;-73
2022/04/03 01:05:43;;;;;;;15.78;8.80;;;;;;;9.93;66.50;99266.02;1744629;81;20920;-72
2022/04/03 01:08:11;;;;;;;12.37;7.12;;;;;;;9.92;66.60;99269.61;1744567;81;20988;-73
2022/04/03 01:10:40;;;;;;;16.10;6.90;;;;;;;9.92;66.62;99268.30;1744485;82;21008;-73
2022/04/03 01:13:08;;;;;;;13.18;7.37;;;;;;;9.95;66.69;99264.12;1744784;82;21216;-72
2022/04/03 01:15:35;;;;;;;11.20;7.30;;;;;;;9.98;66.74;99261.25;1734150;82;21438;-73
2022/04/03 01:18:03;;;;;;;13.83;7.70;;;;;;;9.99;66.88;99264.23;1744490;81;20992;-74
2022/04/03 01:20:31;;;;;;;16.35;7.67;;;;;;;10.01;66.93;99264.13;1744581;80;20956;-73
2022/04/03 01:22:58;;;;;;;11.95;7.20;;;;;;;10.04;66.92;99268.63;1744565;81;20991;-73
2022/04/03 01:25:25;;;;;;;16.48;7.65;;;;;;;10.07;66.85;99264.47;1744874;81;21089;-74
2022/04/03 01:27:53;;;;;;;16.23;7.90;;;;;;;10.09;66.66;99266.95;1744503;82;20917;-74
2022/04/03 01:30:19;;;;;;;16.32;8.48;;;;;;;10.09;66.54;99275.66;1751450;81;20939;-73
2022/04/03 01:32:46;;;;;;;19.57;12.75;;;;;;;10.08;66.46;99267.42;1757987;81;20913;-73
2022/04/03 01:35:14;;;;;;;25.70;14.33;;;;;;;10.09;66.20;99262.56;1757943;81;20873;-74
2022/04/03 01:37:41;;;;;;;18.37;11.73;;;;;;;10.09;65.93;99264.33;1757795;81;21550;-74
2022/04/03 01:40:10;;;;;;;28.35;12.55;;;;;;;10.11;66.10;99261.94;1757839;81;20876;-73
2022/04/03 01:42:37;;;;;;;25.27;12.90;;;;;;;10.13;65.86;99267.88;1757943;81;21389;-74
2022/04/03 01:45:07;;;;;;;18.92;12.75;;;;;;;10.16;65.47;99262.91;1757836;80;20947;-74
2022/04/03 01:47:36;;;;;;;19.17;11.85;;;;;;;10.17;65.39;99260.63;1757969;81;20915;-74
2022/04/03 01:50:05;;;;;;;22.05;13.48;;;;;;;10.20;65.34;99264.78;1758037;81;21231;-73
2022/04/03 01:52:32;;;;;;;26.82;14.43;;;;;;;10.20;65.20;99260.37;1757902;81;21424;-73
2022/04/03 01:55:02;;;;;;;22.25;13.25;;;;;;;10.19;65.01;99256.09;1758068;81;21003;-73
2022/04/03 01:57:29;;;;;;;22.17;11.28;;;;;;;10.17;64.79;99263.24;1758028;81;20996;-73
2022/04/03 01:59:56;;;;;;;21.82;12.05;;;;;;;10.13;64.82;99256.09;1758391;81;21433;-73
2022/04/03 02:02:23;;;;;;;22.45;12.90;;;;;;;10.11;64.83;99271.10;1758059;81;21235;-73
2022/04/03 02:04:49;;;;;;;19.07;10.43;;;;;;;10.08;64.79;99266.12;1758146;81;20928;-72
2022/04/03 02:07:17;;;;;;;18.60;10.55;;;;;;;10.06;64.71;99263.27;1757964;81;20971;-74
2022/04/03 02:09:43;;;;;;;18.65;9.80;;;;;;;10.04;64.78;99276.48;1757891;81;20936;-74
2022/04/03 02:12:12;;;;;;;14.63;8.30;;;;;;;10.01;64.85;99279.84;1758042;81;20904;-72
2022/04/03 02:14:39;;;;;;;21.07;8.78;;;;;;;10.01;64.66;99287.21;1757933;80;21489;-74
2022/04/03 02:17:07;;;;;;;20.00;8.23;;;;;;;10.03;64.75;99291.03;1758000;81;20880;-71
2022/04/03 02:19:33;;;;;;;16.32;7.15;;;;;;;10.03;64.22;99286.61;1758013;81;20944;-74
2022/04/03 02:22:02;;;;;;;14.25;8.00;;;;;;;10.04;63.79;99293.50;1757999;81;20948;-73
2022/04/03 02:24:29;;;;;;;18.65;7.92;;;;;;;10.04;63.78;99286.95;1757991;81;20987;-74
2022/04/03 02:26:56;;;;;;;16.97;8.55;;;;;;;10.04;63.44;99295.30;1758140;80;21240;-73
2022/04/03 02:29:23;;;;;;;15.78;9.65;;;;;;;10.03;63.40;99291.03;1757832;80;20896;-72
2022/04/03 02:31:49;;;;;;;23.35;11.50;;;;;;;10.01;63.16;99298.17;1750120;82;20943;-72
2022/04/03 02:34:17;;;;;;;17.82;9.40;;;;;;;9.96;63.18;99298.53;1749894;82;20883;-73
2022/04/03 02:36:45;;;;;;;19.77;11.00;;;;;;;9.92;63.11;99295.31;1749956;81;20883;-73
2022/04/03 02:39:13;;;;;;;23.83;14.33;;;;;;;9.87;63.20;99297.47;1750021;82;21049;-74
2022/04/03 02:41:40;;;;;;;16.90;9.10;;;;;;;9.83;63.11;99276.41;1749928;80;20932;-72
2022/04/03 02:44:07;;;;;;;14.75;9.88;;;;;;;9.79;62.85;99254.03;1749914;82;20868;-74
2022/04/03 02:46:34;;;;;;;19.17;8.63;;;;;;;9.79;62.69;99247.97;1750148;81;21417;-73
2022/04/03 02:49:02;;;;;;;19.23;10.53;;;;;;;9.77;62.41;99262.96;1749841;82;20987;-74
2022/04/03 02:51:29;;;;;;;18.42;11.00;;;;;;;9.75;62.47;99278.30;1749968;81;21212;-73
2022/04/03 02:53:56;;;;;;;19.20;10.43;;;;;;;9.77;62.49;99283.91;1749896;82;20884;-73
2022/04/03 02:56:22;;;;;;;21.10;11.33;;;;;;;9.78;62.45;99286.86;1750895;81;20935;-71
2022/04/03 02:58:50;;;;;;;21.70;10.75;;;;;;;9.79;62.53;99292.48;1751621;80;20943;-69
2022/04/03 03:01:16;;;;;;;18.45;10.35;;;;;;;9.80;62.50;99295.44;1750670;81;20908;-73
2022/04/03 03:03:43;;;;;;;20.82;11.65;;;;;;;9.79;62.53;99299.84;1749840;81;21264;-73
2022/04/03 03:06:10;;;;;;;20.37;10.28;;;;;;;9.78;62.56;99298.64;1749917;82;20912;-73
2022/04/03 03:08:37;;;;;;;15.30;9.83;;;;;;;9.75;62.52;99297.93;1749939;82;21032;-74
2022/04/03 03:11:04;;;;;;;20.37;9.63;;;;;;;9.73;62.60;99296.39;1749869;80;20907;-74
2022/04/03 03:13:33;;;;;;;15.50;8.60;;;;;;;9.70;62.76;99291.41;1750073;81;20895;-75
2022/04/03 03:16:00;;;;;;;17.80;9.50;;;;;;;9.68;62.95;99298.05;1750012;80;21817;-73
2022/04/03 03:18:28;;;;;;;17.80;7.83;;;;;;;9.67;63.24;99308.63;1749869;81;20969;-73
2022/04/03 03:20:57;;;;;;;10.72;7.53;;;;;;;9.66;63.25;99310.91;1749904;81;20852;-73
2022/04/03 03:23:24;;;;;;;11.28;7.10;;;;;;;9.67;63.28;99302.09;1749875;81;20864;-74
2022/04/03 03:25:52;;;;;;;13.78;7.97;;;;;;;9.69;63.36;99292.34;1749949;81;20986;-72
2022/04/03 03:28:19;;;;;;;12.45;7.10;;;;;;;9.71;63.42;99297.80;1749851;81;21873;-72
2022/04/03 03:30:45;;;;;;;15.58;8.25;;;;;;;9.74;63.48;99294.14;1747346;81;21354;-73
2022/04/03 03:33:12;;;;;;;11.25;6.62;;;;;;;9.77;63.22;99292.59;1744957;81;21098;-74
2022/04/03 03:35:38;;;;;;;10.78;7.58;;;;;;;9.78;63.29;99302.09;1744653;82;21003;-74
2022/04/03 03:38:07;;;;;;;10.55;7.08;;;;;;;9.78;63.32;99302.09;1744696;81;20853;-74
2022/04/03 03:40:38;;;;;;;11.38;6.90;;;;;;;9.78;63.46;99301.27;1744719;81;21220;-74
2022/04/03 03:43:04;;;;;;;15.72;7.03;;;;;;;9.76;63.46;99305.33;1744486;81;20916;-73
2022/04/03 03:45:32;;;;;;;10.68;6.62;;;;;;;9.73;63.77;99305.55;1744694;81;20944;-74
2022/04/03 03:47:59;;;;;;;11.12;7.95;;;;;;;9.72;64.05;99308.66;1744987;81;20944;-73
2022/04/03 03:50:26;;;;;;;9.03;5.67;;;;;;;9.70;64.44;99303.19;1744652;81;20936;-73
2022/04/03 03:52:52;;;;;;;6.67;5.25;;;;;;;9.68;64.87;99303.78;1744653;82;21240;-74
2022/04/03 03:55:20;;;;;;;7.90;5.87;;;;;;;9.65;65.05;99293.52;1744491;81;20920;-74
2022/04/03 03:57:47;;;;;;;11.65;5.75;;;;;;;9.62;65.25;99288.05;1744657;81;20849;-73
2022/04/03 04:00:15;;;;;;;7.17;4.83;;;;;;;9.62;65.71;99289.36;1744541;82;20837;-74
2022/04/03 04:02:42;;;;;;;6.28;4.85;;;;;;;9.64;65.90;99287.95;1744824;81;20932;-74
2022/04/03 04:05:09;;;;;;;6.10;4.83;;;;;;;9.63;66.08;99287.13;1744630;81;21101;-74
2022/04/03 04:07:45;;;;;;;8.00;4.80;;;;;;;9.63;66.37;99288.43;1744530;82;20885;-76
2022/04/03 04:10:15;;;;;;;6.80;4.67;;;;;;;9.62;66.45;99289.84;1744583;81;20901;-74
2022/04/03 04:12:44;;;;;;;6.50;4.12;;;;;;;9.63;66.58;99290.22;1744506;81;20932;-74
2022/04/03 04:15:12;;;;;;;6.28;4.70;;;;;;;9.61;66.69;99277.24;1744576;80;21023;-72
2022/04/03 04:17:47;;;;;;;4.72;3.67;;;;;;;9.62;66.78;99278.89;1744640;81;21264;-74
2022/04/03 04:20:17;;;;;;;5.90;4.15;;;;;;;9.64;67.01;99281.41;1744505;81;20885;-73
2022/04/03 04:22:46;;;;;;;4.22;3.35;;;;;;;9.65;67.19;99288.28;1744521;82;20897;-74
2022/04/03 04:25:17;;;;;;;5.08;3.62;;;;;;;9.61;67.48;99289.02;1744768;81;21416;-74
2022/04/03 04:27:44;;;;;;;4.37;3.92;;;;;;;9.59;67.61;99291.41;1744460;80;20980;-74
2022/04/03 04:30:11;;;;;;;11.15;6.03;;;;;;;9.59;67.77;99288.78;1745646;80;21194;-75
2022/04/03 04:32:40;;;;;;;5.15;3.75;;;;;;;9.62;67.92;99308.99;1757839;81;20932;-74
2022/04/03 04:35:08;;;;;;;5.60;3.45;;;;;;;9.63;67.82;99303.31;1757944;81;21019;-73
2022/04/03 04:37:35;;;;;;;4.12;3.65;;;;;;;9.65;68.01;99299.62;1757959;81;20853;-75
2022/04/03 04:40:03;;;;;;;4.10;3.70;;;;;;;9.70;68.01;99292.23;1758258;81;20998;-73
2022/04/03 04:42:30;;;;;;;4.45;3.85;;;;;;;9.74;68.07;99285.81;1758029;81;21140;-74
2022/04/03 04:44:57;;;;;;;4.12;3.72;;;;;;;9.80;67.87;99289.72;1758046;81;20853;-73
2022/04/03 04:47:25;;;;;;;4.17;3.60;;;;;;;9.84;67.81;99297.69;1758042;80;21406;-75
2022/04/03 04:49:52;;;;;;;4.65;3.47;;;;;;;9.85;67.79;99295.45;1757775;81;20861;-74
2022/04/03 04:52:19;;;;;;;3.90;3.50;;;;;;;9.86;67.89;99287.94;1757949;80;21037;-74
2022/04/03 04:54:45;;;;;;;4.15;3.33;;;;;;;9.89;68.01;99289.47;1758079;80;21266;-74
2022/04/03 04:57:13;;;;;;;4.75;3.35;;;;;;;9.91;67.79;99287.57;1757786;81;20924;-74
2022/04/03 04:59:39;;;;;;;3.42;2.98;;;;;;;9.94;67.78;99295.20;1757915;80;20987;-74
2022/04/03 05:02:07;;;;;;;4.28;3.33;;;;;;;9.95;67.71;99298.98;1757749;80;20947;-75
2022/04/03 05:04:34;;;;;;;3.60;3.25;;;;;;;9.98;67.38;99301.02;1757967;81;20979;-75
2022/04/03 05:07:01;;;;;;;4.40;3.85;;;;;;;10.01;67.09;99296.86;1757818;81;21210;-74
2022/04/03 05:09:28;;;;;;;4.00;3.62;;;;;;;10.04;67.17;99299.23;1757798;81;20928;-75
2022/04/03 05:11:56;;;;;;;4.35;4.03;;;;;;;10.04;66.75;99292.67;1757805;81;20927;-76
2022/04/03 05:14:23;;;;;;;3.85;3.40;;;;;;;10.04;66.55;99290.88;1757778;81;20936;-75
2022/04/03 05:16:50;;;;;;;4.67;3.33;;;;;;;10.04;66.50;99286.95;1741165;81;20944;-74
2022/04/03 05:19:18;;;;;;;5.05;3.45;;;;;;;10.05;66.21;99296.95;1757882;81;21362;-74
2022/04/03 05:21:45;;;;;;;4.50;3.30;;;;;;;10.02;66.46;99299.34;1757992;81;20885;-74
2022/04/03 05:24:14;;;;;;;4.70;3.25;;;;;;;10.02;66.65;99296.72;1757868;80;20829;-75
2022/04/03 05:26:41;;;;;;;4.00;3.60;;;;;;;10.01;67.10;99300.79;1757820;81;20885;-75
2022/04/03 05:29:08;;;;;;;5.87;4.53;;;;;;;10.04;67.39;99296.61;1757835;81;20877;-74
2022/04/03 05:31:36;;;;;;;7.90;5.87;;;;;;;10.06;67.35;99296.02;1750678;80;21253;-74
2022/04/03 05:34:03;;;;;;;9.25;5.85;;;;;;;10.07;67.43;99299.83;1744508;81;20964;-75
2022/04/03 05:36:30;;;;;;;8.98;6.12;;;;;;;10.08;67.47;99309.83;1744482;81;20929;-74
2022/04/03 05:38:57;;;;;;;7.53;5.28;;;;;;;10.09;67.31;99306.23;1744432;81;20861;-75
2022/04/03 05:41:24;;;;;;;7.85;5.42;;;;;;;10.10;67.34;99305.30;1744857;81;20928;-74
2022/04/03 05:45:04;;;;;;;9.80;6.10;;;;;;;10.11;67.68;99309.08;1798570;79;22557;-74
2022/04/03 05:47:33;;;;;;;8.35;5.83;;;;;;;10.05;67.71;99305.66;1758313;81;20952;-75
2022/04/03 05:49:59;;;;;;;8.48;5.42;;;;;;;10.04;67.60;99303.16;1758384;81;21893;-73
2022/04/03 05:52:26;;;;;;;10.15;5.42;;;;;;;10.00;67.61;99301.24;1758189;81;20943;-75
2022/04/03 05:54:53;;;;;;;10.78;7.75;;;;;;;9.95;68.05;99302.09;1758568;81;20943;-75
2022/04/03 05:57:19;;;;;;;9.95;7.78;;;;;;;9.86;68.60;99297.09;1758334;81;20927;-73
2022/04/03 05:59:46;;;;;;;8.48;6.62;;;;;;;9.77;68.18;99304.84;1758327;81;21491;-74
2022/04/03 06:02:13;;;;;;;7.33;5.92;;;;;;;9.63;68.28;99311.16;1758400;81;21236;-74
2022/04/03 06:04:40;;;;;;;6.37;5.30;;;;;;;9.53;68.60;99318.87;1758266;81;20927;-74
2022/04/03 06:07:07;;;;;;;5.50;4.87;;;;;;;9.48;68.99;99317.91;1758332;80;21374;-74
2022/04/03 06:09:34;;;;;;;6.80;5.53;;;;;;;9.46;69.28;99317.19;1758183;81;20896;-75
2022/04/03 06:12:01;;;;;;;6.70;5.70;;;;;;;9.44;69.53;99314.34;1758363;81;20861;-74
2022/04/03 06:14:27;;;;;;;7.12;5.75;;;;;;;9.48;69.65;99302.21;1758262;81;21841;-74
2022/04/03 06:16:55;;;;;;;5.97;5.17;;;;;;;9.53;69.40;99303.98;1759306;81;20932;-70
2022/04/03 06:19:21;;;;;;;6.33;5.05;;;;;;;9.55;69.69;99313.04;1761006;81;21036;-71
2022/04/03 06:21:48;;;;;;;6.22;4.97;;;;;;;9.56;69.58;99316.03;1759900;80;20963;-74
2022/04/03 06:24:15;;;;;;;7.08;5.12;;;;;;;9.61;69.58;99316.98;1758363;80;20884;-75
2022/04/03 06:26:41;;;;;;;6.92;5.58;;;;;;;9.67;69.37;99317.34;1758573;81;21196;-74
2022/04/03 06:29:08;;;;;;;4.60;4.20;;;;;;;9.74;69.40;99314.61;1758371;80;20975;-76
2022/04/03 06:31:35;;;;;;;4.78;4.28;;;;;;;9.81;69.16;99317.58;1758397;81;20861;-75
2022/04/03 06:34:02;;;;;;;5.17;4.28;;;;;;;9.85;68.92;99316.39;1758340;81;20892;-76
2022/04/03 06:36:30;;;;;;;4.20;3.65;;;;;;;9.92;68.80;99315.44;1758240;80;20844;-74
2022/04/03 06:38:56;;;;;;;4.60;4.08;;;;;;;9.97;68.76;99325.06;1758245;81;21228;-75
2022/04/03 06:41:23;;;;;;;5.75;4.80;;;;;;;10.02;68.11;99329.45;1758296;81;20915;-76
2022/04/03 06:43:50;;;;;;;5.20;4.70;;;;;;;10.08;67.59;99329.47;1753027;81;20853;-76
2022/04/03 06:46:16;;;;;;;4.92;4.50;;;;;;;10.12;67.13;99326.97;1745418;80;20920;-77
2022/04/03 06:48:43;;;;;;;5.28;4.78;;;;;;;10.15;66.87;99331.47;1745700;81;21370;-76
2022/04/03 06:51:11;;;;;;;5.50;4.97;;;;;;;10.21;66.70;99335.89;1745159;82;21641;-75
2022/04/03 06:53:37;;;;;;;6.12;5.08;;;;;;;10.23;66.41;99330.87;1745251;81;21422;-76
2022/04/03 06:56:05;;;;;;;5.92;4.87;;;;;;;10.21;66.00;99330.16;1744762;81;21015;-76
2022/04/03 06:58:31;;;;;;;5.47;4.90;;;;;;;10.20;66.45;99329.80;1744777;81;20897;-75
2022/04/03 07:00:58;;;;;;;4.58;4.12;;;;;;;10.20;66.49;99321.11;1744705;81;20917;-75
2022/04/03 07:03:27;;;;;;;4.70;4.25;;;;;;;10.17;66.60;99319.56;1745166;81;21094;-77
2022/04/03 07:05:56;;;;;;;4.40;4.00;;;;;;;10.20;66.66;99325.03;1744608;80;20988;-77
2022/04/03 07:08:22;;;;;;;5.60;4.60;;;;;;;10.19;66.37;99324.21;1744637;81;20889;-76
2022/04/03 07:10:50;;;;;;;4.85;4.30;;;;;;;10.16;66.10;99322.67;1744644;82;21433;-77
2022/04/03 07:13:17;;;;;;;4.53;4.10;;;;;;;10.15;66.22;99318.86;1744682;81;20940;-76
2022/04/03 07:15:44;;;;;;;5.55;5.05;;;;;;;10.20;66.21;99323.73;1744652;80;21648;-76
2022/04/03 07:18:12;;;;;;;5.05;4.40;;;;;;;10.27;65.90;99316.59;1745035;81;21288;-76
2022/04/03 07:20:39;;;;;;;5.20;4.70;;;;;;;10.38;65.58;99315.73;1745057;82;20936;-76
2022/04/03 07:23:07;;;;;;;4.75;4.33;;;;;;;10.51;65.40;99312.97;1744766;81;20905;-75
2022/04/03 07:25:34;;;;;;;5.15;4.70;;;;;;;10.65;65.32;99314.46;1744853;81;20881;-76
2022/04/03 07:28:02;;;;;;;5.58;5.03;;;;;;;10.79;64.46;99300.59;1744752;81;21624;-76
2022/04/03 07:30:29;;;;;;;4.92;4.42;;;;;;;11.02;64.75;99298.34;1745093;81;20929;-74
2022/04/03 07:32:56;;;;;;;4.40;4.00;;;;;;;11.30;63.91;99292.45;1744900;81;21389;-76
2022/04/03 07:35:22;;;;;;;5.08;4.67;;;;;;;11.55;62.19;99294.30;1745224;82;21513;-76
2022/04/03 07:37:51;;;;;;;5.10;4.60;;;;;;;11.73;61.57;99292.71;1744893;82;20892;-76
2022/04/03 07:40:18;;;;;;;5.35;4.85;;;;;;;11.87;60.60;99289.38;1744628;81;21656;-75
2022/04/03 07:42:46;;;;;;;5.92;4.85;;;;;;;11.91;60.68;99283.75;1745112;82;21514;-76
2022/04/03 07:45:13;;;;;;;5.42;4.87;;;;;;;11.93;59.62;99281.00;1755593;81;20872;-76
2022/04/03 07:47:46;;;;;;;6.87;5.08;;;;;;;11.96;59.28;99282.03;1758051;80;20937;-77
2022/04/03 07:50:13;;;;;;;5.05;4.65;;;;;;;11.91;58.77;99287.69;1757774;81;20856;-76
2022/04/03 07:52:41;;;;;;;6.30;5.42;;;;;;;11.80;58.40;99293.87;1758087;80;21393;-75
2022/04/03 07:55:13;;;;;;;5.85;5.35;;;;;;;11.67;58.10;99293.27;1757954;81;21468;-75
2022/04/03 07:57:39;;;;;;;5.15;4.65;;;;;;;11.58;58.36;99299.27;1757024;80;20908;-76
2022/04/03 08:00:08;;;;;;;5.78;5.28;;;;;;;11.43;58.08;99291.39;1758076;80;20960;-76
2022/04/03 08:02:36;;;;;;;5.30;4.83;;;;;;;11.24;58.54;99290.82;1758426;81;21598;-77
2022/04/03 08:05:03;;;;;;;6.22;4.90;;;;;;;11.10;58.39;99290.67;1758138;81;21242;-74
2022/04/03 08:07:44;;;;;;;5.15;4.53;;;;;;;10.95;58.87;99292.77;1757986;81;21392;-76
2022/04/03 08:10:16;;;;;;;5.33;4.85;;;;;;;10.87;59.20;99294.73;1758236;80;20876;-75
2022/04/03 08:12:46;;;;;;;5.92;5.25;;;;;;;10.86;59.40;99297.47;1758141;81;20889;-74
2022/04/03 08:15:16;;;;;;;6.50;5.90;;;;;;;10.87;59.83;99292.56;1758286;81;20960;-74
2022/04/03 08:17:42;;;;;;;5.72;5.12;;;;;;;10.90;60.12;99287.91;1758213;81;21246;-78
2022/04/03 08:20:12;;;;;;;5.75;5.25;;;;;;;10.88;60.57;99293.75;1758087;81;20963;-75
2022/04/03 08:22:39;;;;;;;5.53;4.87;;;;;;;10.85;61.45;99298.41;1758558;81;20885;-76
2022/04/03 08:25:09;;;;;;;4.78;4.30;;;;;;;10.85;61.04;99301.89;1758381;81;20971;-77
2022/04/03 08:27:51;;;;;;;5.67;5.00;;;;;;;10.90;61.07;99300.19;1758136;80;20931;-76
2022/04/03 08:30:27;;;;;;;5.08;4.65;;;;;;;10.95;61.15;99301.95;1758062;81;21902;-74
2022/04/03 08:32:54;;;;;;;5.47;4.97;;;;;;;10.96;60.76;99302.28;1757958;81;20888;-78
2022/04/03 08:35:24;;;;;;;5.60;4.83;;;;;;;10.92;60.73;99292.55;1758149;81;21394;-75
2022/04/03 08:37:51;;;;;;;4.90;4.40;;;;;;;10.94;60.54;99289.32;1758061;81;20889;-75
2022/04/03 08:40:20;;;;;;;5.05;4.65;;;;;;;10.94;60.58;99291.12;1757956;80;20991;-74
2022/04/03 08:42:47;;;;;;;5.60;5.10;;;;;;;10.98;60.63;99280.23;1757685;81;21426;-74
2022/04/03 08:45:14;;;;;;;5.20;4.80;;;;;;;11.05;60.56;99282.33;1757853;81;20924;-73
2022/04/03 08:47:47;;;;;;;6.58;4.40;;;;;;;11.06;60.21;99285.32;1758264;81;20904;-75
2022/04/03 08:50:15;;;;;;;8.50;5.78;;;;;;;11.06;60.44;99282.21;1758121;81;20912;-76
2022/04/03 08:52:50;;;;;;;5.30;4.80;;;;;;;11.05;59.65;99279.70;1758348;81;20896;-76
2022/04/03 08:55:17;;;;;;;6.00;4.67;;;;;;;10.96;59.35;99284.78;1757997;81;21948;-75
2022/04/03 08:57:44;;;;;;;6.08;5.28;;;;;;;10.88;59.43;99283.27;1758079;81;20880;-76
2022/04/03 09:00:13;;;;;;;6.30;5.12;;;;;;;10.86;59.47;99288.28;1757966;81;21354;-75
2022/04/03 09:02:42;;;;;;;4.70;4.30;;;;;;;10.86;59.49;99295.67;1757967;80;21425;-75
2022/04/03 09:05:09;;;;;;;5.55;5.05;;;;;;;10.81;59.23;99294.40;1757869;81;20944;-75
2022/04/03 09:07:36;;;;;;;5.75;5.25;;;;;;;10.77;59.83;99293.81;1757968;81;21830;-74
2022/04/03 09:10:15;;;;;;;5.70;5.05;;;;;;;10.75;59.86;99293.92;1757930;81;20892;-75
2022/04/03 09:12:49;;;;;;;5.25;4.75;;;;;;;10.73;59.96;99287.97;1758081;81;20896;-73
2022/04/03 09:15:23;;;;;;;5.65;5.05;;;;;;;10.72;60.18;99283.70;1758046;81;20924;-72
2022/04/03 09:17:56;;;;;;;5.95;5.35;;;;;;;10.73;60.65;99276.17;1758114;81;20924;-74
2022/04/03 09:20:30;;;;;;;14.38;6.42;;;;;;;10.72;60.63;99271.91;1758147;81;21364;-75
2022/04/03 09:23:06;;;;;;;8.73;6.30;;;;;;;10.72;61.09;99269.77;1758101;81;20924;-77
2022/04/03 09:25:36;;;;;;;8.18;7.37;;;;;;;10.72;61.48;99274.52;1757943;81;20860;-74
2022/04/03 09:28:07;;;;;;;12.43;6.28;;;;;;;10.72;62.20;99280.25;1757894;81;20936;-76
2022/04/03 09:30:37;;;;;;;6.45;5.62;;;;;;;10.69;62.09;99276.55;1721912;83;20863;-74
2022/04/03 09:33:06;;;;;;;6.42;5.75;;;;;;;10.70;62.69;99279.55;1721786;83;21409;-74
2022/04/03 09:36:03;;;;;;;6.80;6.00;;;;;;;10.74;62.96;99277.03;1721706;83;20848;-74
2022/04/03 09:38:32;;;;;;;7.17;6.40;;;;;;;10.76;63.25;99279.88;1722625;83;20923;-73
2022/04/03 09:41:00;;;;;;;8.13;6.85;;;;;;;10.73;63.17;99266.17;1721770;83;21354;-73
2022/04/03 09:43:38;;;;;;;6.47;5.85;;;;;;;10.71;63.61;99263.67;1721478;83;20931;-73
2022/04/03 09:46:09;;;;;;;7.53;6.37;;;;;;;10.73;63.52;99271.41;1708768;83;21929;-75
2022/04/03 09:48:42;;;;;;;8.10;6.45;;;;;;;10.70;63.59;99267.75;1707911;84;20991;-74
2022/04/03 09:51:19;;;;;;;6.78;6.12;;;;;;;10.68;63.63;99272.28;1708898;82;20999;-74
2022/04/03 09:53:56;;;;;;;6.58;5.97;;;;;;;10.62;63.45;99273.60;1708598;83;21022;-72
2022/04/03 09:56:31;;;;;;;7.85;7.12;;;;;;;10.61;64.14;99271.13;1708899;84;20892;-74
2022/04/03 09:59:07;;;;;;;9.25;7.25;;;;;;;10.58;64.59;99269.11;1709402;84;21461;-74
2022/04/03 10:01:41;;;;;;;6.60;6.00;;;;;;;10.58;64.97;99274.35;1708697;84;21020;-74
2022/04/03 10:04:15;;;;;;;8.73;7.35;;;;;;;10.59;64.89;99279.11;1708677;82;20892;-74
2022/04/03 10:06:44;;;;;;;8.00;7.30;;;;;;;10.61;65.26;99284.23;1708691;84;21469;-74
2022/04/03 10:09:15;;;;;;;9.05;7.87;;;;;;;10.62;65.61;99283.27;1708860;84;20880;-73
2022/04/03 10:11:42;;;;;;;10.30;9.18;;;;;;;10.64;66.05;99288.73;1708860;84;21148;-75
2022/04/03 10:14:10;;;;;;;8.68;7.75;;;;;;;10.67;66.19;99287.64;1708732;84;20968;-75
2022/04/03 10:16:38;;;;;;;13.50;11.30;;;;;;;10.69;66.43;99293.11;1708675;83;20976;-74
2022/04/03 10:19:06;;;;;;;10.23;9.15;;;;;;;10.73;66.72;99287.97;1732366;82;21019;-74
2022/04/03 10:21:41;;;;;;;8.45;7.20;;;;;;;10.77;66.62;99288.56;1744638;81;21338;-74
2022/04/03 10:24:17;;;;;;;;;;;;;;;10.76;66.35;99303.47;1747223;82;21246;-75
2022/04/03 10:27:01;;;;;;;8.43;7.62;;;;;;;10.74;66.06;99304.08;1744599;82;20097;-73
2022/04/03 10:29:32;;;;;;;9.95;8.23;;;;;;;10.62;66.52;99312.10;1745085;82;20885;-74
2022/04/03 10:32:03;;;;;;;10.72;8.65;;;;;;;10.62;66.52;99312.10;1759085;81;21492;-75
2022/04/03 10:34:30;;;;;;;11.33;9.45;;;;;;;10.55;67.10;99319.14;1744601;82;21426;-75
2022/04/03 10:36:57;;;;;;;11.50;9.15;;;;;;;10.51;67.76;99308.55;1744656;81;21220;-74
2022/04/03 10:39:26;;;;;;;14.33;10.43;;;;;;;10.48;68.24;99307.98;1744697;81;21358;-74
2022/04/03 10:42:20;;;;;;;11.73;9.55;;;;;;;10.49;68.65;99313.11;1744913;82;21614;-75
2022/04/03 10:45:14;;;;;;;10.68;7.78;;;;;;;10.52;68.87;99312.02;1747299;81;21026;-74
2022/04/03 10:47:42;;;;;;;9.95;8.20;;;;;;;10.53;68.98;99316.30;1758042;81;21366;-73
2022/04/03 10:50:12;;;;;;;10.82;8.40;;;;;;;10.55;68.54;99319.14;1720622;83;21137;-72
2022/04/03 10:52:45;;;;;;;10.28;8.23;;;;;;;10.55;68.70;99322.25;1721829;83;20935;-76
2022/04/03 10:55:27;;;;;;;10.03;8.55;;;;;;;10.50;69.21;99312.63;1722216;83;20892;-75
2022/04/03 10:58:05;;;;;;;11.05;9.90;;;;;;;10.51;69.52;99305.92;1721787;83;20899;-74
2022/04/03 11:00:38;;;;;;;11.20;9.38;;;;;;;10.53;69.50;99311.88;1721804;82;20887;-73
2022/04/03 11:03:21;;;;;;;11.78;8.50;;;;;;;10.49;69.34;99305.70;1721835;83;21867;-74
2022/04/03 11:05:51;;;;;;;10.70;9.18;;;;;;;10.42;69.48;99310.60;1721742;83;20955;-74
2022/04/03 11:08:20;;;;;;;8.83;7.80;;;;;;;10.34;69.51;99306.48;1721981;83;20876;-73
2022/04/03 11:11:08;;;;;;;9.10;7.90;;;;;;;10.29;70.12;99307.30;1695298;83;20931;-73
2022/04/03 11:13:38;;;;;;;10.30;7.97;;;;;;;10.26;70.21;99307.05;1721896;83;20864;-72
2022/04/03 11:16:11;;;;;;;9.18;8.25;;;;;;;10.30;70.48;99298.50;1721865;82;21129;-73
2022/04/03 11:18:50;;;;;;;8.53;7.50;;;;;;;10.32;70.75;99301.34;1721915;83;20876;-73
2022/04/03 11:21:34;;;;;;;10.80;8.53;;;;;;;10.32;70.86;99295.28;1721346;83;20895;-73
2022/04/03 11:24:14;;;;;;;9.93;7.33;;;;;;;10.35;71.04;99298.95;1721801;83;21520;-72
2022/04/03 11:26:41;;;;;;;9.63;8.63;;;;;;;10.37;70.86;99300.50;1721812;82;21422;-74
2022/04/03 11:29:10;;;;;;;10.95;7.97;;;;;;;10.32;70.62;99303.97;1721955;83;21677;-73
2022/04/03 11:31:40;;;;;;;9.73;8.55;;;;;;;10.27;70.77;99300.86;1721844;83;20938;-73
2022/04/03 11:34:07;;;;;;;10.78;9.25;;;;;;;10.20;71.04;99306.21;1721785;83;21472;-73
2022/04/03 11:36:34;;;;;;;9.73;8.73;;;;;;;10.14;71.32;99306.72;1695495;83;20952;-73
2022/04/03 11:39:01;;;;;;;11.33;9.35;;;;;;;10.09;71.46;99299.23;1722156;83;20869;-74
2022/04/03 11:41:34;;;;;;;9.38;7.80;;;;;;;10.08;71.85;99305.41;1719212;82;21268;-74